Time;durP1;ratioP1;P1;durP2;ratioP2;P2;SDS_P1;SDS_P2;PMS_P1;PMS_P2;Temp;Humidity;BMP_temperature;BMP_pressure;BME280_temperature;BME280_humidity;BME280_pressure;Samples;Min_cycle;Max_cycle;Signal;HPM_P1;HPM_P2
2022/11/25 00:02:18;;;;;;;4.60;4.30;;;;;;;7.19;81.96;94633.69;5093940;28;20485;-77
2022/11/25 00:04:45;;;;;;;6.13;4.27;;;;;;;7.25;81.70;94639.28;5094070;28;20445;-77
2022/11/25 00:07:12;;;;;;;12.10;4.03;;;;;;;7.24;81.51;94639.41;5093614;28;20462;-76
2022/11/25 00:09:39;;;;;;;5.60;5.20;;;;;;;7.18;81.10;94648.50;5094051;28;20441;-77
2022/11/25 00:12:06;;;;;;;5.83;5.07;;;;;;;7.18;81.21;94648.50;5093286;28;20494;-77
2022/11/25 00:14:34;;;;;;;11.53;7.80;;;;;;;7.13;81.45;94654.06;5058147;28;20450;-76
2022/11/25 00:17:01;;;;;;;4.47;4.10;;;;;;;7.18;81.30;94651.13;5092994;28;20447;-77
2022/11/25 00:19:27;;;;;;;7.00;6.30;;;;;;;7.17;81.71;94654.66;5093416;28;20533;-77
2022/11/25 00:21:54;;;;;;;7.90;6.50;;;;;;;7.19;81.65;94657.16;5093308;28;20441;-76
2022/11/25 00:24:21;;;;;;;6.03;5.53;;;;;;;7.22;82.06;94664.75;5093243;28;20443;-77
2022/11/25 00:26:48;;;;;;;3.80;3.30;;;;;;;7.07;81.08;94656.31;5093588;28;20435;-77
2022/11/25 00:29:15;;;;;;;5.33;4.33;;;;;;;7.10;81.38;94661.31;5093431;28;20465;-77
2022/11/25 00:31:43;;;;;;;6.80;5.40;;;;;;;7.17;80.94;94665.09;5093193;28;20487;-77
2022/11/25 00:34:13;;;;;;;5.53;4.87;;;;;;;7.17;80.81;94670.31;5093467;28;20925;-77
2022/11/25 00:36:39;;;;;;;5.20;3.93;;;;;;;7.14;81.56;94663.56;5093524;28;20888;-76
2022/11/25 00:39:09;;;;;;;5.10;4.33;;;;;;;7.17;81.73;94665.09;5093215;28;20444;-77
2022/11/25 00:44:36;;;;;;;4.67;4.27;;;;;;;7.25;81.49;94668.00;5093051;28;20481;-77
2022/11/25 00:47:07;;;;;;;5.33;4.73;;;;;;;7.18;81.90;94661.56;5092852;28;20446;-76
2022/11/25 00:49:34;;;;;;;5.00;4.67;;;;;;;7.09;82.81;94670.91;5092847;28;20917;-77
2022/11/25 00:52:01;;;;;;;5.67;4.93;;;;;;;7.10;82.80;94659.53;5092870;28;20483;-77
2022/11/25 00:54:28;;;;;;;7.50;5.60;;;;;;;7.11;83.10;94668.19;5092803;28;20442;-77
2022/11/25 00:56:54;;;;;;;5.33;4.53;;;;;;;7.08;83.30;94658.81;5057072;28;20529;-78
2022/11/25 00:59:21;;;;;;;6.33;5.30;;;;;;;7.06;83.47;94665.09;5092821;28;20442;-77
2022/11/25 01:01:48;;;;;;;6.83;5.07;;;;;;;7.09;84.03;94668.31;5092450;28;20836;-77
2022/11/25 01:04:17;;;;;;;5.40;4.87;;;;;;;6.98;83.24;94675.28;5092548;28;20835;-77
2022/11/25 01:06:44;;;;;;;6.00;5.40;;;;;;;7.04;85.00;94669.59;5092436;28;20437;-77
2022/11/25 01:09:12;;;;;;;8.17;5.57;;;;;;;7.06;82.86;94672.91;5092553;28;20858;-77
2022/11/25 01:11:39;;;;;;;11.40;6.20;;;;;;;7.09;83.31;94670.06;5092410;28;20486;-77
2022/11/25 01:14:08;;;;;;;7.60;5.90;;;;;;;7.13;82.65;94671.50;5092742;28;20807;-77
2022/11/25 01:16:35;;;;;;;9.13;6.93;;;;;;;7.23;82.79;94664.66;5092360;28;20982;-76
2022/11/25 01:19:02;;;;;;;7.20;5.60;;;;;;;7.27;82.57;94665.25;5092116;28;20481;-77
2022/11/25 01:21:32;;;;;;;6.63;5.50;;;;;;;7.24;83.24;94671.56;5092200;28;20458;-77
2022/11/25 01:24:00;;;;;;;9.63;5.70;;;;;;;7.17;82.65;94659.88;5057034;28;20453;-77
2022/11/25 01:26:28;;;;;;;8.80;6.33;;;;;;;7.13;82.10;94659.28;5092195;28;20483;-76
2022/11/25 01:28:56;;;;;;;12.10;8.70;;;;;;;7.05;82.97;94660.81;5091946;28;20629;-78
2022/11/25 01:31:25;;;;;;;8.77;7.60;;;;;;;6.91;83.60;94640.97;5092219;28;20535;-76
2022/11/25 01:33:55;;;;;;;8.10;6.07;;;;;;;7.00;83.47;94657.72;5092257;28;20967;-76
2022/11/25 01:36:22;;;;;;;6.03;5.43;;;;;;;7.02;82.90;94663.66;5092195;28;20548;-77
2022/11/25 01:38:52;;;;;;;7.43;4.33;;;;;;;6.98;82.66;94657.00;5056377;28;20598;-77
2022/11/25 01:41:20;;;;;;;4.30;3.87;;;;;;;7.03;82.36;94657.50;5092241;28;20988;-77
2022/11/25 01:44:03;;;;;;;4.70;4.30;;;;;;;6.98;82.95;94650.03;5091998;28;20956;-76
2022/11/25 01:46:35;;;;;;;4.47;3.80;;;;;;;7.04;83.02;94633.91;5092258;28;20982;-77
2022/11/25 01:49:06;;;;;;;4.97;4.30;;;;;;;7.12;82.02;94643.75;5057628;28;20446;-77
2022/11/25 01:51:40;;;;;;;6.47;5.27;;;;;;;7.19;81.66;94637.13;5091851;28;20492;-77
2022/11/25 01:54:11;;;;;;;5.40;4.90;;;;;;;7.30;81.56;94642.38;5091731;28;20461;-78
2022/11/25 01:56:42;;;;;;;6.30;4.97;;;;;;;7.27;80.48;94634.78;5092092;28;20449;-76
2022/11/25 01:59:09;;;;;;;4.63;3.80;;;;;;;7.29;79.11;94639.88;5091875;28;20488;-78
2022/11/25 02:01:35;;;;;;;6.13;4.07;;;;;;;7.36;79.20;94639.28;5056091;28;20481;-77
2022/11/25 02:04:03;;;;;;;6.03;4.50;;;;;;;7.42;78.87;94643.22;5091884;28;20446;-76
2022/11/25 02:06:37;;;;;;;5.87;4.27;;;;;;;7.40;78.74;94639.88;5091526;28;20446;-77
2022/11/25 02:09:07;;;;;;;4.17;3.77;;;;;;;7.40;78.27;94639.88;5091959;28;20454;-76
2022/11/25 02:11:38;;;;;;;4.30;3.50;;;;;;;7.33;78.18;94646.53;5092042;28;20483;-78
2022/11/25 02:14:06;;;;;;;5.80;5.20;;;;;;;7.40;78.40;94653.78;5091899;28;20972;-77
2022/11/25 02:16:33;;;;;;;4.33;3.93;;;;;;;7.35;78.53;94653.28;5072717;28;20442;-77
2022/11/25 02:19:02;;;;;;;4.17;3.73;;;;;;;7.40;78.70;94655.53;5091618;28;20436;-76
2022/11/25 02:21:38;;;;;;;4.93;3.33;;;;;;;7.34;78.18;94661.25;5091486;28;20451;-76
2022/11/25 02:24:13;;;;;;;4.93;3.70;;;;;;;7.37;78.92;94654.00;5091550;28;20791;-76
2022/11/25 02:26:41;;;;;;;4.40;4.00;;;;;;;7.34;78.10;94651.63;5091570;28;20450;-77
2022/11/25 02:29:08;;;;;;;5.70;4.70;;;;;;;7.33;77.86;94660.41;5091498;28;20956;-78
2022/11/25 02:31:35;;;;;;;4.50;4.10;;;;;;;7.31;78.26;94664.91;5091439;28;20491;-77
2022/11/25 02:34:02;;;;;;;4.03;3.50;;;;;;;7.44;78.59;94665.63;5091587;28;20446;-77
2022/11/25 02:36:28;;;;;;;5.50;4.20;;;;;;;7.42;77.34;94661.47;5091433;28;20431;-77
2022/11/25 02:38:57;;;;;;;5.10;4.37;;;;;;;7.45;77.87;94672.50;5092495;28;20456;-76
2022/11/25 02:41:28;;;;;;;4.27;3.73;;;;;;;7.42;77.75;94669.31;5095382;28;20438;-77
2022/11/25 02:43:56;;;;;;;5.10;4.00;;;;;;;7.43;76.88;94661.34;5095142;28;20449;-77
2022/11/25 02:46:25;;;;;;;4.53;4.07;;;;;;;7.40;76.86;94663.38;5095201;28;20472;-77
2022/11/25 02:48:53;;;;;;;3.77;3.43;;;;;;;7.41;76.13;94668.47;5095263;28;20451;-76
2022/11/25 02:51:23;;;;;;;3.20;3.00;;;;;;;7.35;76.94;94665.50;5095255;28;20438;-77
2022/11/25 02:53:51;;;;;;;3.80;2.40;;;;;;;7.30;76.70;94659.81;5076062;28;20450;-77
2022/11/25 02:56:22;;;;;;;3.10;2.80;;;;;;;7.29;76.60;94674.63;5094949;28;20454;-76
2022/11/25 02:58:49;;;;;;;3.70;3.40;;;;;;;7.25;77.11;94668.00;5094753;28;20507;-77
2022/11/25 03:01:17;;;;;;;4.17;3.60;;;;;;;7.28;76.68;94667.75;5094775;28;20870;-77
2022/11/25 03:03:44;;;;;;;3.07;2.83;;;;;;;7.24;76.31;94668.94;5094821;28;20450;-77
2022/11/25 03:06:11;;;;;;;3.53;3.20;;;;;;;7.24;76.89;94675.94;5095195;28;20446;-77
2022/11/25 03:08:38;;;;;;;4.47;3.17;;;;;;;7.22;77.96;94672.59;5094986;28;20457;-77
2022/11/25 03:11:05;;;;;;;3.47;3.10;;;;;;;7.21;78.13;94676.13;5094537;28;20775;-76
2022/11/25 03:13:32;;;;;;;4.10;3.63;;;;;;;7.18;78.34;94686.81;5094815;28;20489;-78
2022/11/25 03:15:59;;;;;;;4.77;2.90;;;;;;;7.17;79.11;94685.97;5094815;28;20446;-77
2022/11/25 03:18:27;;;;;;;5.00;4.00;;;;;;;7.21;78.89;94683.97;5094837;28;20492;-77
2022/11/25 03:20:55;;;;;;;7.43;4.27;;;;;;;7.24;79.09;94691.59;5094667;28;20445;-78
2022/11/25 03:23:22;;;;;;;3.27;3.00;;;;;;;7.11;79.44;94692.50;5094334;28;20448;-76
2022/11/25 03:25:49;;;;;;;7.90;3.60;;;;;;;7.25;80.96;94691.47;5094296;28;20447;-77
2022/11/25 03:28:16;;;;;;;5.07;3.50;;;;;;;7.21;79.68;94697.84;5094306;28;20502;-76
2022/11/25 03:30:43;;;;;;;7.70;3.90;;;;;;;7.20;79.88;94685.75;5094525;28;20476;-77
2022/11/25 03:33:10;;;;;;;4.53;3.70;;;;;;;7.14;80.36;94696.66;5094116;28;20538;-76
2022/11/25 03:35:38;;;;;;;4.80;4.00;;;;;;;7.07;80.72;94701.50;5094416;28;20491;-76
2022/11/25 03:38:05;;;;;;;4.87;3.80;;;;;;;7.07;81.11;94695.44;5094366;28;20446;-77
2022/11/25 03:40:32;;;;;;;4.37;4.07;;;;;;;7.07;81.71;94703.28;5094264;28;20500;-77
2022/11/25 03:42:58;;;;;;;4.47;3.97;;;;;;;7.03;81.55;94699.22;5094241;28;20552;-76
2022/11/25 03:45:25;;;;;;;10.50;7.17;;;;;;;7.05;81.92;94711.22;5094049;28;20436;-77
2022/11/25 03:47:52;;;;;;;6.37;4.20;;;;;;;7.07;82.55;94717.16;5094292;28;20453;-77
2022/11/25 03:50:19;;;;;;;4.70;4.30;;;;;;;6.98;83.02;94709.19;5092759;28;20487;-77
2022/11/25 03:52:47;;;;;;;4.20;3.80;;;;;;;6.99;83.15;94709.06;5093586;28;20466;-77
2022/11/25 03:55:14;;;;;;;6.30;4.20;;;;;;;6.90;83.84;94701.06;5094065;28;20507;-76
2022/11/25 03:57:41;;;;;;;5.63;4.27;;;;;;;6.84;84.17;94711.00;5093761;28;20450;-77
2022/11/25 04:00:09;;;;;;;4.30;3.57;;;;;;;6.84;84.55;94708.41;5093782;28;20445;-77
2022/11/25 04:02:38;;;;;;;5.13;4.67;;;;;;;6.88;85.12;94716.00;5093560;28;20482;-77
2022/11/25 04:05:05;;;;;;;4.17;3.87;;;;;;;6.80;84.83;94711.34;5093599;28;20450;-76
2022/11/25 04:07:32;;;;;;;3.80;3.50;;;;;;;6.79;85.03;94718.34;5057893;28;20855;-77
2022/11/25 04:10:00;;;;;;;4.70;3.93;;;;;;;6.70;85.32;94712.97;5093820;28;20450;-77
2022/11/25 04:15:11;;;;;;;3.50;3.20;;;;;;;6.63;85.38;94723.00;5093577;28;20429;-76
2022/11/25 04:17:38;;;;;;;4.37;3.37;;;;;;;6.65;85.23;94726.34;5093225;28;20459;-77
2022/11/25 04:20:07;;;;;;;4.17;3.50;;;;;;;6.58;85.72;94719.88;5093364;28;20445;-76
2022/11/25 04:22:33;;;;;;;6.53;3.47;;;;;;;6.63;85.22;94733.41;5093409;28;20492;-77
2022/11/25 04:25:02;;;;;;;3.73;3.43;;;;;;;6.64;85.12;94736.84;5074103;28;20480;-77
2022/11/25 04:27:28;;;;;;;3.37;3.07;;;;;;;6.71;85.85;94745.94;5093143;28;20446;-77
2022/11/25 04:29:56;;;;;;;3.90;3.60;;;;;;;6.72;85.18;94744.97;5095854;28;20449;-77
2022/11/25 04:32:23;;;;;;;3.87;3.37;;;;;;;6.74;85.30;94745.69;5092912;28;20477;-77
2022/11/25 04:34:49;;;;;;;4.90;3.63;;;;;;;6.68;84.55;94741.75;5093160;28;20454;-78
2022/11/25 04:37:16;;;;;;;4.10;3.70;;;;;;;6.66;86.24;94748.88;5093172;28;20447;-77
2022/11/25 04:39:43;;;;;;;3.53;3.33;;;;;;;6.63;84.79;94751.66;5092793;28;20446;-77
2022/11/25 04:44:55;;;;;;;4.50;3.53;;;;;;;6.64;85.48;94761.16;5092990;28;20821;-78
2022/11/25 04:47:22;;;;;;;3.50;3.20;;;;;;;6.56;84.45;94768.69;5092894;28;20452;-78
2022/11/25 04:49:49;;;;;;;4.77;3.50;;;;;;;6.58;85.36;94771.19;5092908;28;20924;-79
2022/11/25 04:52:19;;;;;;;3.13;2.93;;;;;;;6.55;85.09;94776.63;5093027;28;20486;-77
2022/11/25 04:54:45;;;;;;;4.03;3.00;;;;;;;6.52;85.77;94772.47;5092578;28;20449;-76
2022/11/25 04:57:15;;;;;;;3.20;3.00;;;;;;;6.50;85.75;94782.16;5092756;28;20442;-76
2022/11/25 04:59:43;;;;;;;3.77;3.30;;;;;;;6.39;86.55;94772.50;5092579;28;20440;-77
2022/11/25 05:02:14;;;;;;;3.73;3.43;;;;;;;6.42;85.89;94780.09;5093687;28;20477;-76
2022/11/25 05:04:41;;;;;;;3.30;3.10;;;;;;;6.40;86.60;94786.38;5093757;28;20545;-77
2022/11/25 05:07:09;;;;;;;3.60;3.30;;;;;;;6.34;86.62;94784.16;5094029;28;20529;-75
2022/11/25 05:09:36;;;;;;;3.50;3.20;;;;;;;6.32;85.73;94791.25;5093813;28;20448;-76
2022/11/25 05:12:03;;;;;;;3.40;3.10;;;;;;;6.34;87.11;94797.19;5092769;28;20444;-76
2022/11/25 05:14:31;;;;;;;10.17;4.90;;;;;;;6.31;86.14;94800.03;5092551;28;20441;-76
2022/11/25 05:16:58;;;;;;;6.50;5.60;;;;;;;6.38;86.90;94809.09;5092143;28;20449;-76
2022/11/25 05:19:25;;;;;;;4.97;4.47;;;;;;;6.46;85.42;94815.44;5092700;28;20441;-76
2022/11/25 05:21:52;;;;;;;6.40;4.63;;;;;;;6.48;85.96;94810.94;5091623;28;20440;-76
2022/11/25 05:24:18;;;;;;;6.00;5.47;;;;;;;6.49;85.59;94809.19;5091473;28;20442;-76
2022/11/25 05:26:45;;;;;;;5.00;4.60;;;;;;;6.60;85.76;94808.41;5091261;28;20449;-76
2022/11/25 05:29:12;;;;;;;7.90;4.70;;;;;;;6.60;84.57;94811.00;5091656;28;20445;-77
2022/11/25 05:31:40;;;;;;;3.93;3.53;;;;;;;6.50;85.18;94822.09;5091832;28;20448;-77
2022/11/25 05:34:07;;;;;;;3.57;3.27;;;;;;;6.50;83.58;94831.69;5091723;28;20480;-76
2022/11/25 05:36:34;;;;;;;2.97;2.77;;;;;;;6.47;84.00;94837.94;5092140;28;20850;-76
2022/11/25 05:39:01;;;;;;;4.63;4.23;;;;;;;6.44;83.84;94837.34;5091609;28;20453;-76
2022/11/25 05:41:28;;;;;;;4.70;4.13;;;;;;;6.43;83.65;94846.09;5090598;28;20452;-76
2022/11/25 05:43:55;;;;;;;3.13;2.90;;;;;;;6.45;82.94;94842.44;5091325;28;20442;-76
2022/11/25 05:46:22;;;;;;;2.93;2.70;;;;;;;6.49;82.52;94840.44;5097381;28;20471;-76
2022/11/25 05:48:54;;;;;;;3.83;3.53;;;;;;;6.53;83.04;94847.13;5091362;28;20449;-76
2022/11/25 05:51:22;;;;;;;3.27;3.07;;;;;;;6.63;82.06;94852.50;5095846;28;20453;-77
2022/11/25 05:53:49;;;;;;;4.00;3.70;;;;;;;6.68;82.20;94866.91;5075725;28;20487;-77
2022/11/25 05:56:16;;;;;;;3.77;3.47;;;;;;;6.78;82.13;94869.69;5107373;28;20441;-77
2022/11/25 05:58:43;;;;;;;5.70;3.67;;;;;;;6.89;82.65;94867.16;5112482;28;20445;-76
2022/11/25 06:01:11;;;;;;;3.77;3.47;;;;;;;7.00;81.24;94876.84;5075414;28;20863;-77
2022/11/25 06:03:39;;;;;;;4.80;3.53;;;;;;;7.07;80.02;94881.53;5100394;28;20458;-77
2022/11/25 06:06:08;;;;;;;4.73;4.33;;;;;;;7.05;79.58;94885.19;5105969;28;20444;-77
2022/11/25 06:08:36;;;;;;;5.07;3.77;;;;;;;7.01;79.05;94888.97;5113126;28;20822;-77
2022/11/25 06:11:05;;;;;;;5.25;4.75;;;;;;;7.10;79.60;94890.91;5111919;28;20483;-76
2022/11/25 06:13:32;;;;;;;11.97;8.23;;;;;;;7.14;78.95;94898.41;5112896;28;20259;-77
2022/11/25 06:15:59;;;;;;;10.00;7.30;;;;;;;7.14;78.61;94894.94;5117906;28;20445;-76
2022/11/25 06:18:25;;;;;;;6.50;4.80;;;;;;;7.10;79.03;94906.56;5117026;28;20455;-76
2022/11/25 06:20:57;;;;;;;4.70;4.17;;;;;;;7.11;79.22;94903.84;5117153;28;20448;-77
2022/11/25 06:23:26;;;;;;;4.53;4.10;;;;;;;7.10;78.96;94901.34;5115338;28;20535;-78
2022/11/25 06:25:53;;;;;;;5.20;3.67;;;;;;;7.05;78.06;94900.84;5081422;28;20448;-77
2022/11/25 06:28:20;;;;;;;5.30;4.20;;;;;;;7.10;78.82;94901.34;5116023;28;20454;-76
2022/11/25 06:30:46;;;;;;;7.80;5.20;;;;;;;7.11;78.51;94911.66;5108722;28;21114;-75
2022/11/25 06:33:13;;;;;;;3.77;3.40;;;;;;;7.08;78.33;94914.50;5101806;28;20544;-77
2022/11/25 06:35:40;;;;;;;5.50;4.03;;;;;;;7.08;78.40;94924.94;5115581;28;20850;-77
2022/11/25 06:38:07;;;;;;;4.30;3.90;;;;;;;7.03;78.54;94918.38;5098454;28;20459;-76
2022/11/25 06:40:35;;;;;;;3.50;3.20;;;;;;;6.97;78.10;94924.03;5097954;28;20535;-77
2022/11/25 06:43:04;;;;;;;7.07;5.90;;;;;;;7.00;78.12;94934.25;5099407;28;20438;-77
2022/11/25 06:45:32;;;;;;;9.90;4.30;;;;;;;7.04;77.62;94946.97;5066414;28;20489;-77
2022/11/25 06:47:58;;;;;;;9.00;4.80;;;;;;;7.01;77.07;94941.13;5075508;28;20779;-77
2022/11/25 06:50:25;;;;;;;4.40;4.00;;;;;;;7.04;77.70;94946.97;5110135;28;20448;-77
2022/11/25 06:52:52;;;;;;;8.13;4.87;;;;;;;7.05;77.94;94951.25;5109514;28;20556;-76
2022/11/25 06:55:19;;;;;;;5.40;4.90;;;;;;;7.15;77.19;94948.81;5096657;28;20446;-77
2022/11/25 06:57:47;;;;;;;10.30;7.00;;;;;;;7.18;77.36;94953.81;5104649;28;20459;-78
2022/11/25 07:00:15;;;;;;;14.60;5.60;;;;;;;7.20;77.24;94962.34;5078644;28;20440;-77
2022/11/25 07:02:42;;;;;;;9.97;5.27;;;;;;;7.34;76.85;94964.84;5116477;28;20476;-77
2022/11/25 07:05:09;;;;;;;11.70;7.37;;;;;;;7.40;78.19;94963.56;5098632;28;20460;-76
2022/11/25 07:07:36;;;;;;;6.60;5.70;;;;;;;7.44;77.05;94955.41;5112776;28;20462;-77
2022/11/25 07:10:03;;;;;;;7.90;6.90;;;;;;;7.45;77.25;94957.06;5099673;28;20946;-76
2022/11/25 07:12:30;;;;;;;12.67;8.50;;;;;;;7.47;77.05;94963.00;5069032;28;20831;-77
2022/11/25 07:14:58;;;;;;;7.03;5.40;;;;;;;7.42;76.99;94967.72;5094387;28;20478;-77
2022/11/25 07:17:25;;;;;;;6.47;5.33;;;;;;;7.41;77.10;94973.91;5093341;28;20446;-77
2022/11/25 07:19:52;;;;;;;5.13;4.63;;;;;;;7.49;76.60;94962.91;5095039;28;20460;-78
2022/11/25 07:22:19;;;;;;;11.03;7.87;;;;;;;7.55;76.54;94977.31;5094173;28;20443;-78
2022/11/25 07:24:45;;;;;;;8.70;6.57;;;;;;;7.60;76.56;94967.38;5094017;28;20953;-78
2022/11/25 07:27:12;;;;;;;8.30;5.27;;;;;;;7.62;76.76;94963.72;5110437;28;20955;-77
2022/11/25 07:29:39;;;;;;;7.90;6.53;;;;;;;7.73;76.13;94973.38;5114159;28;20843;-78
2022/11/25 07:32:07;;;;;;;6.63;4.43;;;;;;;7.70;74.93;94971.81;5103311;28;20961;-78
2022/11/25 07:34:37;;;;;;;4.60;4.07;;;;;;;7.61;75.30;94977.72;5066281;28;20486;-78
2022/11/25 07:37:04;;;;;;;6.47;5.57;;;;;;;7.69;76.32;94961.47;5093848;28;20438;-78
2022/11/25 07:39:30;;;;;;;6.17;5.57;;;;;;;7.74;75.97;94968.03;5094232;28;20499;-78
2022/11/25 07:41:57;;;;;;;7.07;4.87;;;;;;;7.82;75.04;94970.13;5100715;28;20810;-77
2022/11/25 07:44:24;;;;;;;7.40;4.83;;;;;;;7.85;75.64;94969.06;5093341;28;20446;-78
2022/11/25 07:46:51;;;;;;;4.83;4.43;;;;;;;7.74;75.45;94988.09;5100289;28;20454;-79
2022/11/25 07:49:23;;;;;;;5.77;3.90;;;;;;;7.67;75.65;94976.44;5113504;28;20439;-78
2022/11/25 07:51:52;;;;;;;8.70;4.60;;;;;;;7.69;76.24;94985.81;5106422;28;20471;-78
2022/11/25 07:54:20;;;;;;;5.20;4.20;;;;;;;7.84;75.44;94980.44;5093884;28;20483;-77
2022/11/25 07:56:47;;;;;;;8.80;6.70;;;;;;;7.89;74.63;94994.00;5071875;28;20451;-78
2022/11/25 07:59:17;;;;;;;7.93;7.07;;;;;;;8.01;74.35;94996.53;5093900;28;20436;-77
2022/11/25 08:01:45;;;;;;;5.80;5.30;;;;;;;8.07;73.89;94985.63;5097987;28;20464;-78
2022/11/25 08:04:14;;;;;;;6.57;5.33;;;;;;;8.12;73.16;95003.63;5113891;28;20453;-78
2022/11/25 08:06:44;;;;;;;12.60;7.43;;;;;;;8.11;73.61;94990.66;5113760;28;20451;-78
2022/11/25 08:09:13;;;;;;;10.00;7.80;;;;;;;8.18;72.29;94997.09;5113878;28;20843;-78
2022/11/25 08:11:40;;;;;;;7.80;7.03;;;;;;;8.17;72.50;94995.44;5109218;28;20447;-78
2022/11/25 08:14:09;;;;;;;9.70;7.90;;;;;;;8.18;73.04;95007.56;5110788;28;20471;-78
2022/11/25 08:16:36;;;;;;;13.80;7.33;;;;;;;8.17;73.21;95013.72;5109746;28;20439;-77
2022/11/25 08:22:26;;;;;;;7.90;5.80;;;;;;;7.93;73.88;95000.66;5092729;28;20480;-76
2022/11/25 08:24:53;;;;;;;6.80;4.60;;;;;;;7.98;73.89;94996.78;5094544;28;20855;-77
2022/11/25 08:27:20;;;;;;;5.23;4.83;;;;;;;7.97;73.55;95005.56;5094954;28;20947;-75
2022/11/25 08:29:46;;;;;;;6.80;6.10;;;;;;;7.98;73.38;94999.38;5094904;28;21008;-79
2022/11/25 08:32:13;;;;;;;7.83;6.87;;;;;;;8.13;74.11;95014.91;5095617;28;20455;-76
2022/11/25 08:34:40;;;;;;;7.40;5.57;;;;;;;8.15;73.76;95006.00;5079180;28;20997;-79
2022/11/25 08:37:07;;;;;;;10.43;7.13;;;;;;;8.20;75.89;95008.28;5114284;28;20450;-79
2022/11/25 08:39:36;;;;;;;6.60;5.60;;;;;;;8.26;73.95;94989.53;5115018;28;20423;-79
2022/11/25 08:42:04;;;;;;;5.40;4.90;;;;;;;8.30;72.49;95017.09;5115060;28;20522;-79
2022/11/25 08:44:31;;;;;;;8.37;5.63;;;;;;;8.34;72.89;95016.78;5114968;27;20434;-78
2022/11/25 08:46:58;;;;;;;5.17;4.77;;;;;;;8.28;73.01;95005.91;5079056;28;20442;-78
2022/11/25 08:49:25;;;;;;;5.77;5.33;;;;;;;8.24;72.97;95015.78;5114822;28;20921;-77
2022/11/25 08:51:52;;;;;;;6.40;5.80;;;;;;;8.25;73.78;95020.06;5114503;28;20446;-79
2022/11/25 08:54:19;;;;;;;5.90;5.37;;;;;;;8.29;73.40;95005.81;5114389;28;20471;-78
2022/11/25 08:56:47;;;;;;;6.40;5.80;;;;;;;8.27;73.60;95006.88;5114701;28;20431;-79
2022/11/25 08:59:14;;;;;;;7.30;6.33;;;;;;;8.31;73.46;95003.91;5114967;28;20431;-78
2022/11/25 09:01:41;;;;;;;46.40;22.80;;;;;;;8.38;73.20;94999.94;5113193;28;20471;-79
2022/11/25 09:04:08;;;;;;;15.67;11.30;;;;;;;8.40;72.88;94999.00;5105207;27;20453;-78
2022/11/25 09:06:34;;;;;;;8.03;7.23;;;;;;;8.46;73.27;95004.59;5097817;28;20450;-79
2022/11/25 09:09:01;;;;;;;11.20;7.53;;;;;;;8.55;72.11;95006.50;5112616;28;20504;-79
2022/11/25 09:12:01;;;;;;;6.80;6.17;;;;;;;8.61;74.28;94994.75;5098888;28;20450;-79
2022/11/25 09:17:58;;;;;;;6.33;5.60;;;;;;;8.57;75.19;94996.78;5110676;28;20414;-79
2022/11/25 09:20:24;;;;;;;5.00;4.50;;;;;;;8.50;71.93;95019.09;5089012;28;20454;-79
2022/11/25 09:22:51;;;;;;;8.00;5.33;;;;;;;8.57;72.92;95004.63;5092131;28;20451;-79
2022/11/25 09:25:18;;;;;;;5.77;5.27;;;;;;;8.54;72.50;95023.16;5091824;28;20451;-79
2022/11/25 09:27:46;;;;;;;8.03;7.20;;;;;;;8.71;72.20;95021.91;5092283;28;20853;-79
2022/11/25 09:30:14;;;;;;;5.30;4.80;;;;;;;8.80;72.26;95004.66;5092598;28;20444;-79
2022/11/25 09:32:41;;;;;;;6.78;5.45;;;;;;;8.90;71.74;95005.63;5072699;28;20425;-77
2022/11/25 09:35:08;;;;;;;7.80;7.10;;;;;;;8.97;72.00;95009.47;5091694;28;20217;-78
2022/11/25 09:37:35;;;;;;;5.57;4.57;;;;;;;9.13;70.96;95012.56;5091733;28;20493;-75
2022/11/25 09:40:02;;;;;;;5.63;5.03;;;;;;;9.17;71.49;95013.97;5092009;28;20452;-78
2022/11/25 09:48:43;;;;;;;9.10;7.53;;;;;;;9.15;71.14;95015.88;5029646;28;20470;-79
2022/11/25 09:51:16;;;;;;;6.50;4.60;;;;;;;9.05;69.96;95014.94;5028712;28;21255;-78
2022/11/25 09:53:46;;;;;;;4.53;4.13;;;;;;;9.04;70.72;95021.13;5029038;28;20636;-76
2022/11/25 09:56:22;;;;;;;7.03;5.00;;;;;;;9.12;71.41;95025.75;5029130;28;20453;-78
2022/11/25 09:58:53;;;;;;;6.53;5.30;;;;;;;9.21;70.44;95027.66;5029499;28;20529;-77
2022/11/25 10:01:27;;;;;;;5.93;4.80;;;;;;;9.32;69.08;95032.91;5028489;28;21028;-79
2022/11/25 10:03:57;;;;;;;6.87;5.53;;;;;;;9.29;70.39;95026.13;5034075;28;20471;-78
2022/11/25 10:06:26;;;;;;;11.47;6.70;;;;;;;9.70;84.49;95008.94;5015951;28;20453;-80
2022/11/25 10:08:55;;;;;;;6.70;4.63;;;;;;;9.78;69.23;95016.19;5042590;28;20921;-78
2022/11/25 10:11:30;;;;;;;6.90;5.33;;;;;;;9.69;68.71;95015.16;5045825;28;20451;-78
2022/11/25 10:14:02;;;;;;;4.97;4.10;;;;;;;9.63;67.79;95015.63;5028829;28;20632;-79
2022/11/25 10:16:42;;;;;;;4.97;4.57;;;;;;;9.53;68.94;95014.69;5036643;28;20438;-75
2022/11/25 10:19:15;;;;;;;6.50;5.33;;;;;;;9.48;69.52;95008.97;5036215;28;21065;-78
2022/11/25 10:21:45;;;;;;;5.30;4.43;;;;;;;9.41;69.29;95018.28;5028106;28;20442;-78
2022/11/25 10:24:14;;;;;;;8.00;6.10;;;;;;;9.39;68.89;95017.56;5059620;28;20958;-79
2022/11/25 10:26:44;;;;;;;6.00;5.50;;;;;;;9.37;68.60;95006.38;5091105;28;20484;-76
2022/11/25 10:29:23;;;;;;;6.07;5.47;;;;;;;9.32;68.88;95015.44;5100116;28;20440;-77
2022/11/25 10:32:01;;;;;;;6.07;4.83;;;;;;;9.41;69.17;95010.41;5098925;28;20495;-77
2022/11/25 10:34:36;;;;;;;11.97;5.20;;;;;;;9.39;68.31;95007.09;5097342;28;20480;-78
2022/11/25 10:37:11;;;;;;;10.57;7.70;;;;;;;9.35;68.78;95010.91;5102038;28;20439;-78
2022/11/25 10:39:38;;;;;;;7.87;6.27;;;;;;;9.39;69.61;95001.84;5100944;28;20462;-80
2022/11/25 10:42:08;;;;;;;5.80;5.23;;;;;;;9.38;68.54;95005.41;5110670;28;21508;-77
2022/11/25 10:44:37;;;;;;;11.47;8.30;;;;;;;9.39;69.42;95009.69;5104641;28;20445;-78
2022/11/25 10:47:19;;;;;;;9.20;6.73;;;;;;;9.36;67.67;95002.91;5098149;28;20945;-79
2022/11/25 10:50:03;;;;;;;10.13;6.30;;;;;;;9.28;68.19;95026.25;5096019;28;20439;-80
2022/11/25 10:52:37;;;;;;;13.10;8.07;;;;;;;9.25;67.71;95018.63;5100365;28;20524;-79
2022/11/25 10:55:11;;;;;;;8.03;4.27;;;;;;;9.29;67.63;95015.66;5105679;28;20471;-78
2022/11/25 10:57:37;;;;;;;5.90;5.37;;;;;;;9.40;67.54;95027.91;5092343;28;20452;-78
2022/11/25 11:00:06;;;;;;;7.73;6.93;;;;;;;9.43;66.96;95029.47;5099062;28;20492;-79
2022/11/25 11:02:46;;;;;;;4.53;4.10;;;;;;;9.38;66.99;95016.72;5103574;28;20829;-78
2022/11/25 11:05:22;;;;;;;3.70;3.40;;;;;;;9.56;66.76;95020.53;5105739;28;20443;-79
2022/11/25 11:08:09;;;;;;;4.63;4.23;;;;;;;9.60;66.75;95028.97;5112754;28;20534;-79
2022/11/25 11:10:36;;;;;;;6.93;5.07;;;;;;;9.30;68.42;95026.97;5116058;28;20529;-79
2022/11/25 11:13:05;;;;;;;5.93;5.33;;;;;;;9.34;68.09;95035.41;5111236;28;20934;-80
2022/11/25 11:15:44;;;;;;;10.93;8.40;;;;;;;9.28;71.46;95037.56;5097554;28;20491;-79
2022/11/25 11:18:23;;;;;;;4.70;4.30;;;;;;;9.17;68.38;95039.31;5093601;28;20451;-78
2022/11/25 11:20:52;;;;;;;8.03;6.50;;;;;;;9.24;69.45;95038.72;5092526;28;20439;-79
2022/11/25 11:23:19;;;;;;;3.70;3.40;;;;;;;9.31;69.03;95042.56;5102809;28;20837;-79
2022/11/25 11:25:56;;;;;;;7.07;6.13;;;;;;;9.32;69.74;95051.25;5105658;28;20445;-79
2022/11/25 11:28:31;;;;;;;13.37;10.03;;;;;;;9.25;69.22;95031.72;5104522;27;20824;-79
2022/11/25 11:31:02;;;;;;;7.50;4.47;;;;;;;9.15;69.40;95042.06;5102195;28;20493;-78
2022/11/25 11:33:35;;;;;;;8.63;4.90;;;;;;;9.17;70.07;95053.25;5098493;28;20440;-79
2022/11/25 11:36:14;;;;;;;5.93;4.90;;;;;;;9.13;69.74;95049.19;5115443;28;20484;-78
2022/11/25 11:38:51;;;;;;;11.77;5.60;;;;;;;9.12;69.69;95050.16;5102752;28;20972;-78
2022/11/25 11:41:34;;;;;;;16.13;7.03;;;;;;;9.09;69.89;95026.00;5114687;28;20963;-77
2022/11/25 11:44:13;;;;;;;8.00;6.00;;;;;;;8.92;69.97;95025.50;5104704;28;20495;-76
2022/11/25 11:46:58;;;;;;;7.73;5.90;;;;;;;9.00;70.41;95051.94;5106130;28;20451;-78
2022/11/25 11:49:50;;;;;;;6.27;4.50;;;;;;;9.12;70.41;95042.31;5111810;28;20451;-79
2022/11/25 11:52:27;;;;;;;5.73;5.07;;;;;;;9.17;70.45;95050.63;5108667;28;20460;-78
2022/11/25 11:55:01;;;;;;;7.30;5.37;;;;;;;9.27;70.85;95043.75;5100488;28;20476;-79
2022/11/25 11:57:35;;;;;;;5.67;4.90;;;;;;;9.45;70.35;95043.25;5100530;28;20530;-78
2022/11/25 12:00:05;;;;;;;7.30;5.07;;;;;;;9.38;69.33;95058.63;5106514;28;20941;-78
2022/11/25 12:02:46;;;;;;;5.10;4.40;;;;;;;9.45;69.65;95054.56;5100068;28;20477;-77
2022/11/25 12:05:20;;;;;;;6.27;5.20;;;;;;;9.45;69.40;95058.97;5105267;28;20807;-79
2022/11/25 12:07:58;;;;;;;4.63;4.13;;;;;;;9.44;69.66;95045.06;5105211;27;20816;-77
2022/11/25 12:10:29;;;;;;;11.33;5.40;;;;;;;9.35;69.31;95052.78;5099640;28;20462;-78
2022/11/25 12:13:05;;;;;;;6.30;5.67;;;;;;;9.39;69.57;95059.47;5102987;28;20456;-78